Time;durP1;ratioP1;P1;durP2;ratioP2;P2;SDS_P1;SDS_P2;PMS_P1;PMS_P2;Temp;Humidity;BMP_temperature;BMP_pressure;BME280_temperature;BME280_humidity;BME280_pressure;Samples;Min_cycle;Max_cycle;Signal;HPM_P1;HPM_P2
2021/04/09 00:00:10;;;;;;;;;;;;;;;;;;5028128;28;860;-59
2021/04/09 00:02:36;;;;;;;;;;;;;;;;;;5024550;28;1391;-59
2021/04/09 00:05:04;;;;;;;;;;;;;;;;;;5027761;28;966;-59
2021/04/09 00:07:30;;;;;;;;;;;;;;;;;;5028715;28;919;-60
2021/04/09 00:09:55;;;;;;;;;;;;;;;;;;5028355;28;796;-60
2021/04/09 00:12:20;;;;;;;;;;;;;;;;;;5027126;28;978;-60
2021/04/09 00:14:46;;;;;;;;;;;;;;;;;;5027247;28;820;-60
2021/04/09 00:17:11;;;;;;;;;;;;;;;;;;5027913;28;799;-60
2021/04/09 00:19:37;;;;;;;;;;;;;;;;;;5027106;28;930;-59
2021/04/09 00:22:02;;;;;;;;;;;;;;;;;;5027589;28;883;-60
2021/04/09 00:24:28;;;;;;;;;;;;;;;;;;5028390;28;863;-59
2021/04/09 00:26:54;;;;;;;;;;;;;;;;;;5028064;28;1965;-60
2021/04/09 00:29:20;;;;;;;;;;;;;;;;;;5027823;28;843;-59
2021/04/09 00:31:45;;;;;;;;;;;;;;;;;;5026963;28;831;-60
2021/04/09 00:34:10;;;;;;;;;;;;;;;;;;5027646;28;906;-60
2021/04/09 00:36:36;;;;;;;;;;;;;;;;;;5027403;28;914;-60
2021/04/09 00:39:03;;;;;;;;;;;;;;;;;;5027380;28;839;-60
2021/04/09 00:41:28;;;;;;;;;;;;;;;;;;5028308;28;907;-60
2021/04/09 00:43:54;;;;;;;;;;;;;;;;;;5027316;28;883;-60
2021/04/09 00:46:19;;;;;;;;;;;;;;;;;;5027225;28;1966;-59
2021/04/09 00:48:47;;;;;;;;;;;;;;;;;;5027512;28;811;-60
2021/04/09 00:51:15;;;;;;;;;;;;;;;;;;5027859;28;811;-60
2021/04/09 00:53:48;;;;;;;;;;;;;;;;;;5019660;28;1100;-60
2021/04/09 00:56:18;;;;;;;;;;;;;;;;;;5007501;28;895;-59
2021/04/09 00:58:47;;;;;;;;;;;;;;;;;;5007900;28;823;-60
2021/04/09 01:01:15;;;;;;;;;;;;;;;;;;5024877;28;922;-60
2021/04/09 01:03:40;;;;;;;;;;;;;;;;;;5011263;28;832;-60
2021/04/09 01:06:06;;;;;;;;;;;;;;;;;;5007213;28;1983;-60
2021/04/09 01:08:31;;;;;;;;;;;;;;;;;;5007406;28;819;-61
2021/04/09 01:10:57;;;;;;;;;;;;;;;;;;5008461;28;863;-59
2021/04/09 01:13:23;;;;;;;;;;;;;;;;;;5007493;28;813;-60
2021/04/09 01:15:48;;;;;;;;;;;;;;;;;;5007969;28;855;-59
2021/04/09 01:18:13;;;;;;;;;;;;;;;;;;5007658;28;840;-59
2021/04/09 01:20:39;;;;;;;;;;;;;;;;;;5007376;28;823;-60
2021/04/09 01:23:14;;;;;;;;;;;;;;;;;;5007834;28;863;-60
2021/04/09 01:25:57;;;;;;;;;;;;;;;;;;5007660;28;1993;-60
2021/04/09 01:28:27;;;;;;;;;;;;;;;;;;5007367;28;816;-60
2021/04/09 01:31:02;;;;;;;;;;;;;;;;;;5007721;28;891;-60
2021/04/09 01:33:35;;;;;;;;;;;;;;;;;;5008840;28;1086;-60
2021/04/09 01:36:13;;;;;;;;;;;;;;;;;;5034141;28;1184;-60
2021/04/09 01:38:43;;;;;;;;;;;;;;;;;;5046879;28;812;-60
2021/04/09 01:41:10;;;;;;;;;;;;;;;;;;5047280;28;903;-59
2021/04/09 01:43:37;;;;;;;;;;;;;;;;;;5048374;28;894;-60
2021/04/09 01:46:03;;;;;;;;;;;;;;;;;;5050830;28;1914;-60
2021/04/09 01:48:31;;;;;;;;;;;;;;;;;;5051757;28;929;-59
2021/04/09 01:50:57;;;;;;;;;;;;;;;;;;5051302;28;903;-60
2021/04/09 01:53:26;;;;;;;;;;;;;;;;;;5045225;28;1079;-60
2021/04/09 01:55:52;;;;;;;;;;;;;;;;;;5030814;28;1087;-60
2021/04/09 01:58:18;;;;;;;;;;;;;;;;;;5031005;28;816;-60
2021/04/09 02:00:44;;;;;;;;;;;;;;;;;;5030336;28;928;-60
2021/04/09 02:03:09;;;;;;;;;;;;;;;;;;5030703;28;856;-60
2021/04/09 02:05:36;;;;;;;;;;;;;;;;;;5030919;28;1914;-60
2021/04/09 02:08:02;;;;;;;;;;;;;;;;;;5030584;28;560;-60
2021/04/09 02:10:28;;;;;;;;;;;;;;;;;;5031313;28;803;-59
2021/04/09 02:12:54;;;;;;;;;;;;;;;;;;5028252;28;1031;-60
2021/04/09 02:15:21;;;;;;;;;;;;;;;;;;5029569;28;1214;-60
2021/04/09 02:17:47;;;;;;;;;;;;;;;;;;5030022;28;839;-60
2021/04/09 02:20:14;;;;;;;;;;;;;;;;;;5030103;28;854;-60
2021/04/09 02:22:39;;;;;;;;;;;;;;;;;;5030506;28;811;-60
2021/04/09 02:25:05;;;;;;;;;;;;;;;;;;5012116;28;1199;-60
2021/04/09 02:27:30;;;;;;;;;;;;;;;;;;5030694;28;1867;-60
2021/04/09 02:29:56;;;;;;;;;;;;;;;;;;5030587;28;891;-60
2021/04/09 02:32:22;;;;;;;;;;;;;;;;;;5029951;28;871;-60
2021/04/09 02:34:47;;;;;;;;;;;;;;;;;;5029465;28;847;-59
2021/04/09 02:37:13;;;;;;;;;;;;;;;;;;5029478;28;910;-60
2021/04/09 02:39:39;;;;;;;;;;;;;;;;;;5029864;28;867;-60
2021/04/09 02:42:08;;;;;;;;;;;;;;;;;;5029636;28;947;-60
2021/04/09 02:44:34;;;;;;;;;;;;;;;;;;5029679;28;874;-60
2021/04/09 02:47:03;;;;;;;;;;;;;;;;;;5030615;28;1968;-59
2021/04/09 02:49:28;;;;;;;;;;;;;;;;;;5030365;28;879;-59
2021/04/09 02:51:54;;;;;;;;;;;;;;;;;;5029674;28;852;-59
2021/04/09 02:54:20;;;;;;;;;;;;;;;;;;5016621;28;1091;-59
2021/04/09 02:56:47;;;;;;;;;;;;;;;;;;5010168;28;713;-60
2021/04/09 02:59:13;;;;;;;;;;;;;;;;;;5026547;28;967;-60
2021/04/09 03:01:44;;;;;;;;;;;;;;;;;;5029251;28;907;-60
2021/04/09 03:04:10;;;;;;;;;;;;;;;;;;5029329;28;965;-60
2021/04/09 03:06:36;;;;;;;;;;;;;;;;;;5028819;28;1977;-60
2021/04/09 03:09:02;;;;;;;;;;;;;;;;;;5028833;28;899;-60
2021/04/09 03:11:28;;;;;;;;;;;;;;;;;;5042540;28;1180;-59
2021/04/09 03:13:53;;;;;;;;;;;;;;;;;;5049278;28;800;-59
2021/04/09 03:16:21;;;;;;;;;;;;;;;;;;5049023;28;879;-59
2021/04/09 03:18:46;;;;;;;;;;;;;;;;;;5048574;28;1145;-60
2021/04/09 03:21:12;;;;;;;;;;;;;;;;;;5049334;28;784;-59
2021/04/09 03:23:37;;;;;;;;;;;;;;;;;;5048990;28;873;-60
2021/04/09 03:26:02;;;;;;;;;;;;;;;;;;5047937;28;1898;-60
2021/04/09 03:28:28;;;;;;;;;;;;;;;;;;5049142;28;820;-59
2021/04/09 03:30:53;;;;;;;;;;;;;;;;;;5048603;28;977;-59
2021/04/09 03:33:19;;;;;;;;;;;;;;;;;;5048655;28;788;-59
2021/04/09 03:35:45;;;;;;;;;;;;;;;;;;5048690;28;812;-59
2021/04/09 03:38:14;;;;;;;;;;;;;;;;;;5048785;28;930;-59
2021/04/09 03:40:40;;;;;;;;;;;;;;;;;;5047913;28;832;-60
2021/04/09 03:43:05;;;;;;;;;;;;;;;;;;5048225;28;828;-60
2021/04/09 03:45:31;;;;;;;;;;;;;;;;;;5049669;28;1967;-59
2021/04/09 03:47:56;;;;;;;;;;;;;;;;;;5049321;28;840;-59
2021/04/09 03:50:22;;;;;;;;;;;;;;;;;;5047847;28;919;-60
2021/04/09 03:52:47;;;;;;;;;;;;;;;;;;5047932;28;1115;-59
2021/04/09 03:55:13;;;;;;;;;;;;;;;;;;5027601;28;883;-60
2021/04/09 03:57:38;;;;;;;;;;;;;;;;;;5027765;28;894;-60
2021/04/09 04:00:05;;;;;;;;;;;;;;;;;;5027921;28;847;-60
2021/04/09 04:02:31;;;;;;;;;;;;;;;;;;5029276;28;812;-59
2021/04/09 04:04:56;;;;;;;;;;;;;;;;;;5028462;28;816;-59
2021/04/09 04:07:22;;;;;;;;;;;;;;;;;;5026723;28;1906;-59
2021/04/09 04:09:47;;;;;;;;;;;;;;;;;;5027112;28;835;-59
2021/04/09 04:12:12;;;;;;;;;;;;;;;;;;5027447;28;855;-59
2021/04/09 04:14:38;;;;;;;;;;;;;;;;;;5027590;28;862;-60
2021/04/09 04:17:03;;;;;;;;;;;;;;;;;;5024461;28;1023;-60
2021/04/09 04:19:29;;;;;;;;;;;;;;;;;;5028775;28;762;-60
2021/04/09 04:21:54;;;;;;;;;;;;;;;;;;5027372;28;914;-60
2021/04/09 04:24:19;;;;;;;;;;;;;;;;;;5026801;28;803;-59
2021/04/09 04:26:45;;;;;;;;;;;;;;;;;;5027375;28;1973;-59
2021/04/09 04:29:10;;;;;;;;;;;;;;;;;;5027361;28;804;-59
2021/04/09 04:31:35;;;;;;;;;;;;;;;;;;5027478;28;870;-59
2021/04/09 04:34:01;;;;;;;;;;;;;;;;;;5028231;28;918;-60
2021/04/09 04:36:27;;;;;;;;;;;;;;;;;;5028940;28;1034;-60
2021/04/09 04:38:52;;;;;;;;;;;;;;;;;;5027053;28;823;-59
2021/04/09 04:41:18;;;;;;;;;;;;;;;;;;5027400;28;883;-59
2021/04/09 04:43:43;;;;;;;;;;;;;;;;;;5027829;28;803;-59
2021/04/09 04:46:08;;;;;;;;;;;;;;;;;;5027198;28;2039;-59
2021/04/09 04:48:34;;;;;;;;;;;;;;;;;;5027050;28;919;-59
2021/04/09 04:51:00;;;;;;;;;;;;;;;;;;5027976;28;851;-59
2021/04/09 04:53:26;;;;;;;;;;;;;;;;;;5003947;28;1166;-60
2021/04/09 04:55:51;;;;;;;;;;;;;;;;;;5007698;28;791;-59
2021/04/09 04:58:17;;;;;;;;;;;;;;;;;;5007337;28;895;-60
2021/04/09 05:00:42;;;;;;;;;;;;;;;;;;5021567;28;914;-60
2021/04/09 05:03:07;;;;;;;;;;;;;;;;;;5027257;28;855;-60
2021/04/09 05:05:33;;;;;;;;;;;;;;;;;;5026993;28;1983;-60
2021/04/09 05:07:58;;;;;;;;;;;;;;;;;;5027527;28;851;-59
2021/04/09 05:10:23;;;;;;;;;;;;;;;;;;5027365;28;873;-59
2021/04/09 05:12:49;;;;;;;;;;;;;;;;;;5027145;28;891;-60
2021/04/09 05:15:14;;;;;;;;;;;;;;;;;;5027301;28;815;-59
2021/04/09 05:17:40;;;;;;;;;;;;;;;;;;5029482;28;826;-59
2021/04/09 05:20:05;;;;;;;;;;;;;;;;;;5031041;28;827;-60
2021/04/09 05:22:31;;;;;;;;;;;;;;;;;;5031598;28;1138;-59
2021/04/09 05:24:56;;;;;;;;;;;;;;;;;;5031594;28;799;-59
2021/04/09 05:27:21;;;;;;;;;;;;;;;;;;5031804;28;1963;-59
2021/04/09 05:29:47;;;;;;;;;;;;;;;;;;5031522;28;804;-60
2021/04/09 05:32:13;;;;;;;;;;;;;;;;;;5031400;28;789;-59
2021/04/09 05:34:39;;;;;;;;;;;;;;;;;;5031721;28;883;-59
2021/04/09 05:37:04;;;;;;;;;;;;;;;;;;5030758;28;808;-59
2021/04/09 05:39:30;;;;;;;;;;;;;;;;;;5029876;28;1656;-59
2021/04/09 05:41:55;;;;;;;;;;;;;;;;;;5029241;28;1551;-59
2021/04/09 05:44:21;;;;;;;;;;;;;;;;;;5012256;28;847;-59
2021/04/09 05:46:46;;;;;;;;;;;;;;;;;;5011173;28;1882;-59
2021/04/09 05:49:11;;;;;;;;;;;;;;;;;;5011251;28;804;-59
2021/04/09 05:51:37;;;;;;;;;;;;;;;;;;5010829;28;863;-59
2021/04/09 05:54:03;;;;;;;;;;;;;;;;;;5021108;28;905;-61
2021/04/09 05:56:28;;;;;;;;;;;;;;;;;;5031564;28;828;-59
2021/04/09 05:58:54;;;;;;;;;;;;;;;;;;5030944;28;808;-59
2021/04/09 06:01:19;;;;;;;;;;;;;;;;;;5030316;28;929;-59
2021/04/09 06:03:46;;;;;;;;;;;;;;;;;;5030591;28;819;-59
2021/04/09 06:06:11;;;;;;;;;;;;;;;;;;5030272;28;1973;-59
2021/04/09 06:08:37;;;;;;;;;;;;;;;;;;5030635;28;903;-60
2021/04/09 06:11:02;;;;;;;;;;;;;;;;;;5030500;28;827;-60
2021/04/09 06:13:29;;;;;;;;;;;;;;;;;;5013276;28;789;-59
2021/04/09 06:15:54;;;;;;;;;;;;;;;;;;5026947;28;1051;-59
2021/04/09 06:18:20;;;;;;;;;;;;;;;;;;5025001;28;1275;-59
2021/04/09 06:20:45;;;;;;;;;;;;;;;;;;5011629;28;1167;-59
2021/04/09 06:23:11;;;;;;;;;;;;;;;;;;5010184;28;895;-60
2021/04/09 06:25:36;;;;;;;;;;;;;;;;;;5005269;28;1918;-59
2021/04/09 06:28:01;;;;;;;;;;;;;;;;;;4991092;28;846;-59
2021/04/09 06:30:27;;;;;;;;;;;;;;;;;;4989458;28;1074;-59
2021/04/09 06:32:52;;;;;;;;;;;;;;;;;;4989984;28;844;-59
2021/04/09 06:35:18;;;;;;;;;;;;;;;;;;4989330;28;816;-60
2021/04/09 06:37:43;;;;;;;;;;;;;;;;;;5010917;28;1054;-59
2021/04/09 06:40:10;;;;;;;;;;;;;;;;;;5014011;28;1255;-59
2021/04/09 06:42:36;;;;;;;;;;;;;;;;;;5010119;28;1298;-60
2021/04/09 06:45:03;;;;;;;;;;;;;;;;;;5010720;28;1166;-59
2021/04/09 06:47:28;;;;;;;;;;;;;;;;;;5011088;28;1911;-59
2021/04/09 06:49:54;;;;;;;;;;;;;;;;;;5008394;28;1222;-60
2021/04/09 06:52:20;;;;;;;;;;;;;;;;;;5011260;28;1234;-59
2021/04/09 06:54:45;;;;;;;;;;;;;;;;;;5025014;28;1146;-60
2021/04/09 06:57:11;;;;;;;;;;;;;;;;;;5029660;28;836;-60
2021/04/09 06:59:40;;;;;;;;;;;;;;;;;;5029063;28;930;-60
2021/04/09 07:02:06;;;;;;;;;;;;;;;;;;5024101;28;1174;-60
2021/04/09 07:04:33;;;;;;;;;;;;;;;;;;5007799;28;2204;-59
2021/04/09 07:06:58;;;;;;;;;;;;;;;;;;5010337;28;1899;-60
2021/04/09 07:09:23;;;;;;;;;;;;;;;;;;5012857;28;1160;-60
2021/04/09 07:11:49;;;;;;;;;;;;;;;;;;5010955;28;1191;-59
2021/04/09 07:14:15;;;;;;;;;;;;;;;;;;5009666;28;843;-60
2021/04/09 07:16:54;;;;;;;;;;;;;;;;;;5021203;28;1318;-60
2021/04/09 07:19:30;;;;;;;;;;;;;;;;;;5027871;28;812;-60
2021/04/09 07:22:00;;;;;;;;;;;;;;;;;;4989804;28;899;-59
2021/04/09 07:24:25;;;;;;;;;;;;;;;;;;4989584;28;820;-59
2021/04/09 07:26:52;;;;;;;;;;;;;;;;;;4988868;28;1886;-59
2021/04/09 07:29:32;;;;;;;;;;;;;;;;;;4989249;28;820;-60
2021/04/09 07:31:58;;;;;;;;;;;;;;;;;;4989885;28;879;-60
2021/04/09 07:34:24;;;;;;;;;;;;;;;;;;5013293;28;1720;-61
2021/04/09 07:36:53;;;;;;;;;;;;;;;;;;5000881;28;1936;-60
2021/04/09 07:39:30;;;;;;;;;;;;;;;;;;5023536;28;1391;-59
2021/04/09 07:42:09;;;;;;;;;;;;;;;;;;5022439;28;1218;-59
2021/04/09 07:44:39;;;;;;;;;;;;;;;;;;5008171;28;1748;-60
2021/04/09 07:47:12;;;;;;;;;;;;;;;;;;5025012;28;1972;-61
2021/04/09 07:49:37;;;;;;;;;;;;;;;;;;5009135;28;1136;-61
2021/04/09 07:52:13;;;;;;;;;;;;;;;;;;5006333;28;1628;-61
2021/04/09 07:54:38;;;;;;;;;;;;;;;;;;5023682;28;1128;-60
2021/04/09 07:57:04;;;;;;;;;;;;;;;;;;5028300;28;835;-61
2021/04/09 07:59:41;;;;;;;;;;;;;;;;;;5028848;28;912;-61
2021/04/09 08:02:15;;;;;;;;;;;;;;;;;;5105527;27;1330;-61
2021/04/09 08:04:41;;;;;;;;;;;;;;;;;;5105547;28;838;-61
2021/04/09 08:07:07;;;;;;;;;;;;;;;;;;5105210;28;819;-61
2021/04/09 08:09:50;;;;;;;;;;;;;;;;;;5105185;28;1621;-62
2021/04/09 08:12:25;;;;;;;;;;;;;;;;;;5104708;28;951;-61
2021/04/09 08:14:51;;;;;;;;;;;;;;;;;;5103400;28;735;-61
2021/04/09 08:17:18;;;;;;;;;;;;;;;;;;5106873;28;1026;-61
2021/04/09 08:19:44;;;;;;;;;;;;;;;;;;5104395;28;909;-60
2021/04/09 08:22:10;;;;;;;;;;;;;;;;;;5104646;28;815;-61
2021/04/09 08:24:36;;;;;;;;;;;;;;;;;;5104493;28;846;-61
2021/04/09 08:27:02;;;;;;;;;;;;;;;;;;5105622;28;819;-61
2021/04/09 08:29:29;;;;;;;;;;;;;;;;;;5105986;28;887;-61
2021/04/09 08:31:55;;;;;;;;;;;;;;;;;;5104821;28;895;-61
2021/04/09 08:34:20;;;;;;;;;;;;;;;;;;5104817;28;902;-61
2021/04/09 08:36:46;;;;;;;;;;;;;;;;;;5104636;28;815;-61
2021/04/09 08:39:13;;;;;;;;;;;;;;;;;;5104435;28;815;-61
2021/04/09 08:41:39;;;;;;;;;;;;;;;;;;5097512;28;1890;-61
2021/04/09 08:44:08;;;;;;;;;;;;;;;;;;5087714;28;1636;-61
2021/04/09 08:46:33;;;;;;;;;;;;;;;;;;5090824;28;1207;-61
2021/04/09 08:48:59;;;;;;;;;;;;;;;;;;5099944;28;1079;-63
2021/04/09 08:51:26;;;;;;;;;;;;;;;;;;5103999;28;898;-60
2021/04/09 08:53:51;;;;;;;;;;;;;;;;;;5099903;28;1355;-60
2021/04/09 08:56:36;;;;;;;;;;;;;;;;;;5094822;28;1083;-61
2021/04/09 08:59:01;;;;;;;;;;;;;;;;;;5104791;28;1291;-61
2021/04/09 09:01:27;;;;;;;;;;;;;;;;;;5096476;28;1906;-61
2021/04/09 09:03:52;;;;;;;;;;;;;;;;;;5095047;28;1186;-61
2021/04/09 09:06:17;;;;;;;;;;;;;;;;;;5093349;28;1202;-61
2021/04/09 09:08:43;;;;;;;;;;;;;;;;;;5083026;28;2039;-61
2021/04/09 09:11:09;;;;;;;;;;;;;;;;;;5089412;28;1072;-61
2021/04/09 09:13:44;;;;;;;;;;;;;;;;;;5084101;28;1162;-62
2021/04/09 09:16:13;;;;;;;;;;;;;;;;;;5079293;28;1147;-61
2021/04/09 09:18:38;;;;;;;;;;;;;;;;;;5067486;28;1530;-60
2021/04/09 09:21:17;;;;;;;;;;;;;;;;;;5058809;28;2301;-61
2021/04/09 09:23:51;;;;;;;;;;;;;;;;;;5059415;28;835;-60
2021/04/09 09:26:18;;;;;;;;;;;;;;;;;;5069419;28;871;-60
2021/04/09 09:28:46;;;;;;;;;;;;;;;;;;5069493;28;820;-60
2021/04/09 09:31:27;;;;;;;;;;;;;;;;;;5069638;28;861;-60
2021/04/09 09:34:12;;;;;;;;;;;;;;;;;;5071762;28;1245;-60
2021/04/09 09:36:58;;;;;;;;;;;;;;;;;;5065919;28;2388;-60
2021/04/09 09:39:32;;;;;;;;;;;;;;;;;;5066467;28;1266;-60
2021/04/09 09:41:58;;;;;;;;;;;;;;;;;;5085411;28;1890;-61
2021/04/09 09:44:23;;;;;;;;;;;;;;;;;;5071324;28;1194;-60
2021/04/09 09:46:56;;;;;;;;;;;;;;;;;;5069065;28;847;-61
2021/04/09 09:49:22;;;;;;;;;;;;;;;;;;5079006;28;1171;-60
2021/04/09 09:51:48;;;;;;;;;;;;;;;;;;5074901;28;1080;-61
2021/04/09 09:54:20;;;;;;;;;;;;;;;;;;5085264;28;1117;-61
2021/04/09 09:56:46;;;;;;;;;;;;;;;;;;5079070;28;1155;-61
2021/04/09 09:59:15;;;;;;;;;;;;;;;;;;5072658;28;1162;-61
2021/04/09 10:01:41;;;;;;;;;;;;;;;;;;5086037;28;1885;-61
2021/04/09 10:04:11;;;;;;;;;;;;;;;;;;5089332;28;1244;-60
2021/04/09 10:06:37;;;;;;;;;;;;;;;;;;5089339;28;1092;-61
2021/04/09 10:09:02;;;;;;;;;;;;;;;;;;5091889;28;1198;-61
2021/04/09 10:11:29;;;;;;;;;;;;;;;;;;5102636;28;1173;-61
2021/04/09 10:13:56;;;;;;;;;;;;;;;;;;5107635;28;1102;-60
2021/04/09 10:16:22;;;;;;;;;;;;;;;;;;5107368;27;1204;-61
2021/04/09 10:18:51;;;;;;;;;;;;;;;;;;5108809;28;898;-60
2021/04/09 10:21:16;;;;;;;;;;;;;;;;;;5108848;28;1951;-61
2021/04/09 10:23:42;;;;;;;;;;;;;;;;;;5107323;28;846;-61
2021/04/09 10:26:08;;;;;;;;;;;;;;;;;;5100365;28;1233;-61
2021/04/09 10:28:34;;;;;;;;;;;;;;;;;;5087436;28;1167;-61
2021/04/09 10:31:08;;;;;;;;;;;;;;;;;;5088585;28;1064;-61
2021/04/09 10:33:41;;;;;;;;;;;;;;;;;;5088091;28;1108;-61
2021/04/09 10:36:20;;;;;;;;;;;;;;;;;;5087741;28;1162;-61
2021/04/09 10:38:47;;;;;;;;;;;;;;;;;;5079646;28;1107;-61
2021/04/09 10:41:26;;;;;;;;;;;;;;;;;;5088137;28;1968;-60
2021/04/09 10:43:59;;;;;;;;;;;;;;;;;;5088091;28;1659;-60
2021/04/09 10:46:48;;;;;;;;;;;;;;;;;;5088077;28;870;-60
2021/04/09 10:49:15;;;;;;;;;;;;;;;;;;5084859;28;1883;-60
2021/04/09 10:51:43;;;;;;;;;;;;;;;;;;5087623;28;819;-61
2021/04/09 10:54:09;;;;;;;;;;;;;;;;;;5099094;28;1038;-61
2021/04/09 10:56:35;;;;;;;;;;;;;;;;;;5108126;28;851;-61
2021/04/09 10:59:01;;;;;;;;;;;;;;;;;;5106765;28;1513;-60
2021/04/09 11:01:26;;;;;;;;;;;;;;;;;;5084655;28;1890;-61
2021/04/09 11:03:53;;;;;;;;;;;;;;;;;;5087609;28;846;-61
2021/04/09 11:06:19;;;;;;;;;;;;;;;;;;5067078;28;1250;-61
2021/04/09 11:08:45;;;;;;;;;;;;;;;;;;5083823;28;1163;-61
2021/04/09 11:11:11;;;;;;;;;;;;;;;;;;5087020;28;814;-61
2021/04/09 11:13:41;;;;;;;;;;;;;;;;;;5087922;28;1185;-61
2021/04/09 11:16:09;;;;;;;;;;;;;;;;;;5090451;28;1082;-61
2021/04/09 11:18:53;;;;;;;;;;;;;;;;;;5088188;28;1181;-61
2021/04/09 11:21:37;;;;;;;;;;;;;;;;;;5087344;28;1906;-61
2021/04/09 11:24:03;;;;;;;;;;;;;;;;;;5088510;28;1343;-61
2021/04/09 11:26:33;;;;;;;;;;;;;;;;;;5087901;28;1174;-61
2021/04/09 11:28:59;;;;;;;;;;;;;;;;;;5088885;27;1157;-61
2021/04/09 11:31:25;;;;;;;;;;;;;;;;;;5088604;28;1189;-60
2021/04/09 11:34:01;;;;;;;;;;;;;;;;;;5087144;28;822;-61
2021/04/09 11:36:26;;;;;;;;;;;;;;;;;;5086286;28;826;-61
2021/04/09 11:39:04;;;;;;;;;;;;;;;;;;5086779;28;901;-61
2021/04/09 11:41:30;;;;;;;;;;;;;;;;;;5088058;28;1893;-61
2021/04/09 11:43:56;;;;;;;;;;;;;;;;;;5086847;28;1656;-61
2021/04/09 11:46:31;;;;;;;;;;;;;;;;;;5086387;28;898;-61
2021/04/09 11:49:00;;;;;;;;;;;;;;;;;;5086503;28;854;-61
2021/04/09 11:51:25;;;;;;;;;;;;;;;;;;5087044;28;886;-60
2021/04/09 11:53:56;;;;;;;;;;;;;;;;;;5095998;28;1102;-60
2021/04/09 11:56:41;;;;;;;;;;;;;;;;;;5106312;28;839;-60
2021/04/09 11:59:13;;;;;;;;;;;;;;;;;;5106938;28;725;-61
2021/04/09 12:01:39;;;;;;;;;;;;;;;;;;5097371;28;1906;-61
2021/04/09 12:04:04;;;;;;;;;;;;;;;;;;5085985;28;748;-61
2021/04/09 12:06:36;;;;;;;;;;;;;;;;;;5089259;28;1078;-61
2021/04/09 12:09:03;;;;;;;;;;;;;;;;;;5085365;28;831;-60
2021/04/09 12:11:28;;;;;;;;;;;;;;;;;;5086808;28;1554;-61
2021/04/09 12:13:54;;;;;;;;;;;;;;;;;;5085652;28;886;-61
2021/04/09 12:16:19;;;;;;;;;;;;;;;;;;5084964;28;835;-60
2021/04/09 12:18:44;;;;;;;;;;;;;;;;;;5086840;28;810;-61
2021/04/09 12:21:10;;;;;;;;;;;;;;;;;;5086917;28;1941;-61
2021/04/09 12:23:35;;;;;;;;;;;;;;;;;;5085815;28;1270;-61
2021/04/09 12:26:00;;;;;;;;;;;;;;;;;;5087641;28;889;-62
2021/04/09 12:28:27;;;;;;;;;;;;;;;;;;5086787;28;877;-61
2021/04/09 12:30:52;;;;;;;;;;;;;;;;;;5086907;28;886;-61
2021/04/09 12:33:22;;;;;;;;;;;;;;;;;;5085242;28;1377;-61
2021/04/09 12:35:47;;;;;;;;;;;;;;;;;;5086328;28;858;-61
2021/04/09 12:38:13;;;;;;;;;;;;;;;;;;5086492;28;779;-60
2021/04/09 12:40:38;;;;;;;;;;;;;;;;;;5086229;28;1958;-61
2021/04/09 12:43:04;;;;;;;;;;;;;;;;;;5086695;28;871;-61
2021/04/09 12:45:29;;;;;;;;;;;;;;;;;;5087604;28;811;-61
2021/04/09 12:47:54;;;;;;;;;;;;;;;;;;5089154;28;886;-60
2021/04/09 12:50:20;;;;;;;;;;;;;;;;;;5090506;28;846;-60
2021/04/09 12:52:45;;;;;;;;;;;;;;;;;;5090104;28;882;-61
2021/04/09 12:55:11;;;;;;;;;;;;;;;;;;5110769;28;1121;-61
2021/04/09 12:57:36;;;;;;;;;;;;;;;;;;5110177;28;1159;-61
2021/04/09 13:00:03;;;;;;;;;;;;;;;;;;5111080;28;1964;-61
2021/04/09 13:02:28;;;;;;;;;;;;;;;;;;5110609;28;827;-61
2021/04/09 13:04:54;;;;;;;;;;;;;;;;;;5110526;28;838;-60
2021/04/09 13:07:19;;;;;;;;;;;;;;;;;;5110238;28;803;-61
2021/04/09 13:09:44;;;;;;;;;;;;;;;;;;5104767;28;1283;-61
2021/04/09 13:12:10;;;;;;;;;;;;;;;;;;5090673;28;882;-61
2021/04/09 13:14:35;;;;;;;;;;;;;;;;;;5088560;28;867;-61
2021/04/09 13:17:00;;;;;;;;;;;;;;;;;;5090893;28;906;-61
2021/04/09 13:19:27;;;;;;;;;;;;;;;;;;5089910;28;882;-61
2021/04/09 13:21:53;;;;;;;;;;;;;;;;;;5090210;28;2336;-61
2021/04/09 13:24:18;;;;;;;;;;;;;;;;;;5088385;28;859;-61
2021/04/09 13:26:43;;;;;;;;;;;;;;;;;;5089652;28;869;-62
2021/04/09 13:29:09;;;;;;;;;;;;;;;;;;5089946;28;815;-61
2021/04/09 13:31:34;;;;;;;;;;;;;;;;;;5088885;28;909;-62
2021/04/09 13:33:59;;;;;;;;;;;;;;;;;;5089548;28;889;-61
2021/04/09 13:36:25;;;;;;;;;;;;;;;;;;5088095;28;976;-61
2021/04/09 13:38:51;;;;;;;;;;;;;;;;;;5087960;28;867;-61
2021/04/09 13:41:17;;;;;;;;;;;;;;;;;;5087691;28;1963;-61
2021/04/09 13:43:42;;;;;;;;;;;;;;;;;;5088237;28;1136;-61
2021/04/09 13:46:08;;;;;;;;;;;;;;;;;;5088910;28;838;-61
2021/04/09 13:48:41;;;;;;;;;;;;;;;;;;5089584;28;906;-61
2021/04/09 13:51:07;;;;;;;;;;;;;;;;;;5089450;28;847;-60
2021/04/09 13:53:32;;;;;;;;;;;;;;;;;;5096733;28;1098;-60
2021/04/09 13:55:58;;;;;;;;;;;;;;;;;;5110686;28;651;-61
2021/04/09 13:58:23;;;;;;;;;;;;;;;;;;5109748;28;917;-61
2021/04/09 14:00:48;;;;;;;;;;;;;;;;;;5109255;28;1889;-61
2021/04/09 14:03:14;;;;;;;;;;;;;;;;;;5109522;28;822;-61
2021/04/09 14:05:39;;;;;;;;;;;;;;;;;;5109550;27;830;-61
2021/04/09 14:08:05;;;;;;;;;;;;;;;;;;5109663;28;811;-61
2021/04/09 14:10:30;;;;;;;;;;;;;;;;;;5095614;28;1276;-61
2021/04/09 14:12:56;;;;;;;;;;;;;;;;;;5089114;28;834;-61
2021/04/09 14:15:22;;;;;;;;;;;;;;;;;;5091373;28;1068;-61
2021/04/09 14:17:49;;;;;;;;;;;;;;;;;;5088043;28;870;-61
2021/04/09 14:20:17;;;;;;;;;;;;;;;;;;5087400;28;1902;-61
2021/04/09 14:22:42;;;;;;;;;;;;;;;;;;5088810;28;866;-61
2021/04/09 14:25:09;;;;;;;;;;;;;;;;;;5089067;28;893;-62
2021/04/09 14:27:37;;;;;;;;;;;;;;;;;;5088851;28;855;-61
2021/04/09 14:30:03;;;;;;;;;;;;;;;;;;5089767;28;830;-61
2021/04/09 14:32:29;;;;;;;;;;;;;;;;;;5089673;28;799;-61
2021/04/09 14:34:54;;;;;;;;;;;;;;;;;;5088618;28;819;-60
2021/04/09 14:37:19;;;;;;;;;;;;;;;;;;5088565;28;863;-61
2021/04/09 14:39:45;;;;;;;;;;;;;;;;;;5087989;28;1375;-61
2021/04/09 14:42:11;;;;;;;;;;;;;;;;;;5088768;28;1901;-61
2021/04/09 14:44:36;;;;;;;;;;;;;;;;;;5088296;28;851;-61
2021/04/09 14:47:01;;;;;;;;;;;;;;;;;;5089019;28;839;-61
2021/04/09 14:49:27;;;;;;;;;;;;;;;;;;5088689;28;891;-61
2021/04/09 14:51:53;;;;;;;;;;;;;;;;;;5088235;28;985;-61
2021/04/09 14:54:18;;;;;;;;;;;;;;;;;;5101077;28;1074;-61
2021/04/09 14:56:44;;;;;;;;;;;;;;;;;;5108306;28;894;-61
2021/04/09 14:59:09;;;;;;;;;;;;;;;;;;5108759;28;842;-61
2021/04/09 15:01:35;;;;;;;;;;;;;;;;;;5077075;28;1902;-61
2021/04/09 15:04:00;;;;;;;;;;;;;;;;;;5078008;28;1732;-60
2021/04/09 15:06:26;;;;;;;;;;;;;;;;;;5076968;28;1707;-60
2021/04/09 15:08:51;;;;;;;;;;;;;;;;;;5077863;28;1850;-60
2021/04/09 15:11:17;;;;;;;;;;;;;;;;;;5087302;28;827;-60
2021/04/09 15:13:42;;;;;;;;;;;;;;;;;;5087190;28;1624;-60
2021/04/09 15:16:08;;;;;;;;;;;;;;;;;;5088023;28;870;-60
2021/04/09 15:18:34;;;;;;;;;;;;;;;;;;5086628;28;842;-61
2021/04/09 15:20:59;;;;;;;;;;;;;;;;;;5083446;28;1973;-60
2021/04/09 15:23:25;;;;;;;;;;;;;;;;;;5072646;28;971;-66
2021/04/09 15:25:51;;;;;;;;;;;;;;;;;;5083513;28;1959;-61
2021/04/09 15:28:16;;;;;;;;;;;;;;;;;;5087293;28;887;-60
2021/04/09 15:30:42;;;;;;;;;;;;;;;;;;5086182;28;1210;-61
2021/04/09 15:33:07;;;;;;;;;;;;;;;;;;5086902;28;830;-61
2021/04/09 15:35:33;;;;;;;;;;;;;;;;;;5086650;28;1170;-61
2021/04/09 15:37:58;;;;;;;;;;;;;;;;;;5087811;28;1692;-61
2021/04/09 15:40:24;;;;;;;;;;;;;;;;;;5086799;28;1898;-61
2021/04/09 15:42:49;;;;;;;;;;;;;;;;;;5086195;28;1098;-61
2021/04/09 15:45:15;;;;;;;;;;;;;;;;;;5085436;28;1240;-61
2021/04/09 15:47:41;;;;;;;;;;;;;;;;;;5083627;28;1160;-61
2021/04/09 15:50:07;;;;;;;;;;;;;;;;;;5086187;28;1260;-61
2021/04/09 15:52:33;;;;;;;;;;;;;;;;;;5086541;28;1071;-61
2021/04/09 15:54:58;;;;;;;;;;;;;;;;;;5087873;28;1071;-61
2021/04/09 15:57:24;;;;;;;;;;;;;;;;;;5086224;28;1225;-60
2021/04/09 15:59:49;;;;;;;;;;;;;;;;;;5085846;28;1269;-60
2021/04/09 16:02:15;;;;;;;;;;;;;;;;;;5096502;28;1893;-61
2021/04/09 16:04:40;;;;;;;;;;;;;;;;;;5097672;28;1204;-61
2021/04/09 16:07:06;;;;;;;;;;;;;;;;;;5086191;28;1091;-61
2021/04/09 16:09:32;;;;;;;;;;;;;;;;;;5087687;28;1162;-61
2021/04/09 16:11:57;;;;;;;;;;;;;;;;;;5095467;28;1464;-60
2021/04/09 16:14:22;;;;;;;;;;;;;;;;;;5090213;28;1165;-61
2021/04/09 16:16:49;;;;;;;;;;;;;;;;;;5106285;28;1184;-61
2021/04/09 16:19:15;;;;;;;;;;;;;;;;;;5088057;28;1062;-62
2021/04/09 16:21:40;;;;;;;;;;;;;;;;;;5088115;28;1894;-61
2021/04/09 16:24:07;;;;;;;;;;;;;;;;;;5092016;28;1173;-61
2021/04/09 16:26:34;;;;;;;;;;;;;;;;;;5110294;28;1200;-61
2021/04/09 16:28:59;;;;;;;;;;;;;;;;;;5099254;28;1177;-61
2021/04/09 16:31:25;;;;;;;;;;;;;;;;;;5090265;28;1192;-61
2021/04/09 16:33:50;;;;;;;;;;;;;;;;;;5089524;28;1310;-61
2021/04/09 16:36:15;;;;;;;;;;;;;;;;;;5102863;28;1174;-61
2021/04/09 16:38:41;;;;;;;;;;;;;;;;;;5104872;28;1165;-61
2021/04/09 16:41:06;;;;;;;;;;;;;;;;;;5089957;28;1913;-61
2021/04/09 16:43:31;;;;;;;;;;;;;;;;;;5093159;28;1181;-61
2021/04/09 16:45:57;;;;;;;;;;;;;;;;;;5090640;28;819;-60
2021/04/09 16:48:22;;;;;;;;;;;;;;;;;;5090032;28;827;-60
2021/04/09 16:50:48;;;;;;;;;;;;;;;;;;5089867;28;922;-60
2021/04/09 16:53:14;;;;;;;;;;;;;;;;;;5094004;28;1162;-60
2021/04/09 16:55:43;;;;;;;;;;;;;;;;;;5111172;28;881;-61
2021/04/09 16:58:09;;;;;;;;;;;;;;;;;;5099457;28;1378;-61
2021/04/09 17:00:34;;;;;;;;;;;;;;;;;;5089896;28;1952;-62
2021/04/09 17:02:59;;;;;;;;;;;;;;;;;;5091191;28;854;-61
2021/04/09 17:05:25;;;;;;;;;;;;;;;;;;5090144;28;818;-61
2021/04/09 17:07:50;;;;;;;;;;;;;;;;;;5089847;28;854;-62
2021/04/09 17:10:16;;;;;;;;;;;;;;;;;;5085994;28;1794;-62